Aviator — V7NU9 — position and weather

sailwx.info

Track history (hours):
 
Tides and Currents Weather Stations Pressure Air Temp Water Temp Dewpoint Dewpoint Depression Visibility Wind Speed Wind Dir Waves Ship Positions

Aviator

Last reported at 2017-Jul-25 16:54 UTC. Time now 2017-Jul-26 16:52 UTC.
Position N 29°18' E 123°38'.

Length 140 m; draft 7.5 m.

Type: Ship. MMSI: 538003023.

Date/timePositionNaut miles runAvg speedWind from/ knotsBaromVisibWave heightAir tempDewpointWater temp
2017-Jul-25 16:54N 29°18' E 123°38'4 9.2
2017-Jul-25 16:27N 29°21' E 123°41'5 8.8
2017-Jul-25 15:50N 29°25' E 123°44'3 8.9
2017-Jul-25 15:31N 29°28' E 123°46'5 9.2
2017-Jul-25 15:00N 29°31' E 123°49'15 9.4
2017-Jul-25 13:24N 29°44' E 123°60'810.5
2017-Jul-25 12:41N 29°50' E 124°05'510.8
2017-Jul-25 12:15N 29°54' E 124°08'310.9
2017-Jul-25 12:00N 29°56' E 124°10'711.7
2017-Jul-25 11:22N 30°01' E 124°15'911.5
2017-Jul-25 10:37N 30°08' E 124°21'211.6
2017-Jul-25 10:29N 30°10' E 124°22'611.7
2017-Jul-25 10:00N 30°14' E 124°26'21710.0
2017-Jul-24 12:14N 33°04' E 127°05'  
Track history (hours):
 
Tides and Currents Weather Stations Pressure Air Temp Water Temp Dewpoint Dewpoint Depression Visibility Wind Speed Wind Dir Waves Ship Positions

Aviator

Last reported at 2017-Jul-25 16:54 UTC. Time now 2017-Jul-26 16:52 UTC.
Position N 29°18' E 123°38'.

Length 140 m; draft 7.5 m.

Type: Ship. MMSI: 538003023.

Date/timePositionNaut miles runAvg speedWind from/ knotsBaromVisibWave heightAir tempDewpointWater temp
2017-Jul-25 16:54N 29°18' E 123°38'4 9.2
2017-Jul-25 16:27N 29°21' E 123°41'5 8.8
2017-Jul-25 15:50N 29°25' E 123°44'3 8.9
2017-Jul-25 15:31N 29°28' E 123°46'5 9.2
2017-Jul-25 15:00N 29°31' E 123°49'15 9.4
2017-Jul-25 13:24N 29°44' E 123°60'810.5
2017-Jul-25 12:41N 29°50' E 124°05'510.8
2017-Jul-25 12:15N 29°54' E 124°08'310.9
2017-Jul-25 12:00N 29°56' E 124°10'711.7
2017-Jul-25 11:22N 30°01' E 124°15'911.5
2017-Jul-25 10:37N 30°08' E 124°21'211.6
2017-Jul-25 10:29N 30°10' E 124°22'611.7
2017-Jul-25 10:00N 30°14' E 124°26'21710.0
2017-Jul-24 12:14N 33°04' E 127°05'  

Dump ship's entire track history